sensor_id;sensor_type;location;lat;lon;timestamp;P1;durP1;ratioP1;P2;durP2;ratioP2
17283;SDS011;8760;52.248;20.952;2023-05-16T00:01:11;5.60;;;5.10;;
17283;SDS011;8760;52.248;20.952;2023-05-16T00:03:39;6.67;;;5.10;;
17283;SDS011;8760;52.248;20.952;2023-05-16T00:06:07;5.90;;;5.30;;
17283;SDS011;8760;52.248;20.952;2023-05-16T00:08:34;7.60;;;5.00;;
17283;SDS011;8760;52.248;20.952;2023-05-16T00:11:01;5.87;;;5.20;;
17283;SDS011;8760;52.248;20.952;2023-05-16T00:13:28;8.53;;;5.50;;
17283;SDS011;8760;52.248;20.952;2023-05-16T00:15:55;6.20;;;5.60;;
17283;SDS011;8760;52.248;20.952;2023-05-16T00:18:26;5.87;;;5.33;;
17283;SDS011;8760;52.248;20.952;2023-05-16T00:20:54;6.70;;;5.40;;
17283;SDS011;8760;52.248;20.952;2023-05-16T00:23:21;6.07;;;5.57;;
17283;SDS011;8760;52.248;20.952;2023-05-16T00:25:48;5.93;;;5.43;;
17283;SDS011;8760;52.248;20.952;2023-05-16T00:28:15;6.57;;;5.80;;
17283;SDS011;8760;52.248;20.952;2023-05-16T00:30:42;6.60;;;5.90;;
17283;SDS011;8760;52.248;20.952;2023-05-16T00:33:09;6.43;;;5.83;;
17283;SDS011;8760;52.248;20.952;2023-05-16T00:35:36;6.33;;;5.73;;
17283;SDS011;8760;52.248;20.952;2023-05-16T00:38:04;6.77;;;6.13;;
17283;SDS011;8760;52.248;20.952;2023-05-16T00:40:31;6.37;;;5.73;;
17283;SDS011;8760;52.248;20.952;2023-05-16T00:42:58;6.63;;;6.00;;
17283;SDS011;8760;52.248;20.952;2023-05-16T00:45:25;6.43;;;5.83;;
17283;SDS011;8760;52.248;20.952;2023-05-16T00:47:52;7.73;;;6.93;;
17283;SDS011;8760;52.248;20.952;2023-05-16T00:50:19;6.70;;;6.10;;
17283;SDS011;8760;52.248;20.952;2023-05-16T00:52:46;7.90;;;7.10;;
17283;SDS011;8760;52.248;20.952;2023-05-16T00:55:15;7.20;;;6.50;;
17283;SDS011;8760;52.248;20.952;2023-05-16T00:57:41;7.50;;;6.80;;
17283;SDS011;8760;52.248;20.952;2023-05-16T01:00:09;9.70;;;6.93;;
17283;SDS011;8760;52.248;20.952;2023-05-16T01:02:38;10.03;;;7.23;;
17283;SDS011;8760;52.248;20.952;2023-05-16T01:05:06;7.77;;;6.97;;
17283;SDS011;8760;52.248;20.952;2023-05-16T01:07:33;6.90;;;6.20;;
17283;SDS011;8760;52.248;20.952;2023-05-16T01:10:01;10.07;;;6.57;;
17283;SDS011;8760;52.248;20.952;2023-05-16T01:12:33;7.97;;;7.17;;
17283;SDS011;8760;52.248;20.952;2023-05-16T01:15:04;8.10;;;7.30;;
17283;SDS011;8760;52.248;20.952;2023-05-16T01:17:37;8.23;;;7.43;;
17283;SDS011;8760;52.248;20.952;2023-05-16T01:20:19;8.50;;;7.60;;
17283;SDS011;8760;52.248;20.952;2023-05-16T01:22:59;11.27;;;7.23;;
17283;SDS011;8760;52.248;20.952;2023-05-16T01:25:36;9.43;;;7.20;;
17283;SDS011;8760;52.248;20.952;2023-05-16T01:28:13;8.27;;;7.47;;
17283;SDS011;8760;52.248;20.952;2023-05-16T01:30:42;8.93;;;7.97;;
17283;SDS011;8760;52.248;20.952;2023-05-16T01:33:09;8.60;;;7.80;;
17283;SDS011;8760;52.248;20.952;2023-05-16T01:38:25;8.80;;;7.90;;
17283;SDS011;8760;52.248;20.952;2023-05-16T01:40:58;10.30;;;8.27;;
17283;SDS011;8760;52.248;20.952;2023-05-16T01:43:32;9.03;;;8.20;;
17283;SDS011;8760;52.248;20.952;2023-05-16T01:46:03;8.00;;;7.20;;
17283;SDS011;8760;52.248;20.952;2023-05-16T01:48:36;9.03;;;8.20;;
17283;SDS011;8760;52.248;20.952;2023-05-16T01:51:08;10.90;;;8.33;;
17283;SDS011;8760;52.248;20.952;2023-05-16T01:53:37;12.17;;;7.97;;
17283;SDS011;8760;52.248;20.952;2023-05-16T01:56:08;8.70;;;7.80;;
17283;SDS011;8760;52.248;20.952;2023-05-16T01:58:40;8.70;;;7.80;;
17283;SDS011;8760;52.248;20.952;2023-05-16T02:01:07;10.20;;;7.87;;
17283;SDS011;8760;52.248;20.952;2023-05-16T02:03:35;9.03;;;8.13;;
17283;SDS011;8760;52.248;20.952;2023-05-16T02:06:03;8.53;;;7.73;;
17283;SDS011;8760;52.248;20.952;2023-05-16T02:08:30;10.97;;;7.77;;
17283;SDS011;8760;52.248;20.952;2023-05-16T02:10:57;9.77;;;7.70;;
17283;SDS011;8760;52.248;20.952;2023-05-16T02:13:23;11.13;;;8.30;;
17283;SDS011;8760;52.248;20.952;2023-05-16T02:15:52;8.87;;;8.07;;
17283;SDS011;8760;52.248;20.952;2023-05-16T02:18:19;11.33;;;8.47;;
17283;SDS011;8760;52.248;20.952;2023-05-16T02:20:47;9.93;;;8.27;;
17283;SDS011;8760;52.248;20.952;2023-05-16T02:23:14;10.03;;;8.20;;
17283;SDS011;8760;52.248;20.952;2023-05-16T02:25:41;9.13;;;8.23;;
17283;SDS011;8760;52.248;20.952;2023-05-16T02:28:08;9.80;;;8.47;;
17283;SDS011;8760;52.248;20.952;2023-05-16T02:30:35;8.93;;;8.13;;
17283;SDS011;8760;52.248;20.952;2023-05-16T02:33:03;9.23;;;8.33;;
17283;SDS011;8760;52.248;20.952;2023-05-16T02:35:30;9.03;;;8.07;;
17283;SDS011;8760;52.248;20.952;2023-05-16T02:37:57;9.03;;;8.13;;
17283;SDS011;8760;52.248;20.952;2023-05-16T02:40:24;9.47;;;8.30;;
17283;SDS011;8760;52.248;20.952;2023-05-16T02:42:51;9.37;;;8.47;;
17283;SDS011;8760;52.248;20.952;2023-05-16T02:45:18;8.63;;;7.73;;
17283;SDS011;8760;52.248;20.952;2023-05-16T02:47:45;10.63;;;9.00;;
17283;SDS011;8760;52.248;20.952;2023-05-16T02:50:13;10.27;;;8.23;;
17283;SDS011;8760;52.248;20.952;2023-05-16T02:52:40;9.20;;;8.40;;
17283;SDS011;8760;52.248;20.952;2023-05-16T02:55:07;9.07;;;8.17;;
17283;SDS011;8760;52.248;20.952;2023-05-16T02:57:36;8.93;;;8.13;;
17283;SDS011;8760;52.248;20.952;2023-05-16T03:00:03;9.97;;;8.97;;
17283;SDS011;8760;52.248;20.952;2023-05-16T03:02:31;8.77;;;7.97;;
17283;SDS011;8760;52.248;20.952;2023-05-16T03:04:58;9.37;;;8.20;;
17283;SDS011;8760;52.248;20.952;2023-05-16T03:07:26;8.97;;;8.07;;
17283;SDS011;8760;52.248;20.952;2023-05-16T03:09:53;9.40;;;8.50;;
17283;SDS011;8760;52.248;20.952;2023-05-16T03:12:20;9.13;;;8.23;;
17283;SDS011;8760;52.248;20.952;2023-05-16T03:14:47;9.10;;;8.20;;
17283;SDS011;8760;52.248;20.952;2023-05-16T03:17:13;8.90;;;8.00;;
17283;SDS011;8760;52.248;20.952;2023-05-16T03:19:40;8.83;;;7.93;;
17283;SDS011;8760;52.248;20.952;2023-05-16T03:22:07;8.77;;;7.87;;
17283;SDS011;8760;52.248;20.952;2023-05-16T03:24:35;8.50;;;7.67;;
17283;SDS011;8760;52.248;20.952;2023-05-16T03:27:02;10.07;;;8.50;;
17283;SDS011;8760;52.248;20.952;2023-05-16T03:29:30;9.00;;;8.07;;
17283;SDS011;8760;52.248;20.952;2023-05-16T03:31:57;9.10;;;8.20;;
17283;SDS011;8760;52.248;20.952;2023-05-16T03:34:23;9.30;;;8.30;;
17283;SDS011;8760;52.248;20.952;2023-05-16T03:36:50;9.10;;;8.30;;
17283;SDS011;8760;52.248;20.952;2023-05-16T03:39:17;9.70;;;8.70;;
17283;SDS011;8760;52.248;20.952;2023-05-16T03:41:46;11.80;;;8.97;;
17283;SDS011;8760;52.248;20.952;2023-05-16T03:44:12;8.77;;;7.87;;
17283;SDS011;8760;52.248;20.952;2023-05-16T03:46:39;9.10;;;8.00;;
17283;SDS011;8760;52.248;20.952;2023-05-16T03:49:06;8.73;;;7.83;;
17283;SDS011;8760;52.248;20.952;2023-05-16T03:51:33;8.97;;;8.07;;
17283;SDS011;8760;52.248;20.952;2023-05-16T03:54:00;9.80;;;8.80;;
17283;SDS011;8760;52.248;20.952;2023-05-16T03:56:27;8.43;;;7.73;;
17283;SDS011;8760;52.248;20.952;2023-05-16T03:58:55;8.83;;;8.03;;
17283;SDS011;8760;52.248;20.952;2023-05-16T04:01:22;9.33;;;8.23;;
17283;SDS011;8760;52.248;20.952;2023-05-16T04:03:49;9.43;;;8.33;;
17283;SDS011;8760;52.248;20.952;2023-05-16T04:06:16;9.07;;;7.97;;
17283;SDS011;8760;52.248;20.952;2023-05-16T04:08:43;9.93;;;8.07;;
17283;SDS011;8760;52.248;20.952;2023-05-16T04:11:10;9.10;;;8.17;;
17283;SDS011;8760;52.248;20.952;2023-05-16T04:13:37;9.10;;;8.20;;
17283;SDS011;8760;52.248;20.952;2023-05-16T04:16:06;9.60;;;8.40;;
17283;SDS011;8760;52.248;20.952;2023-05-16T04:18:33;9.77;;;8.87;;
17283;SDS011;8760;52.248;20.952;2023-05-16T04:21:00;8.33;;;7.63;;
17283;SDS011;8760;52.248;20.952;2023-05-16T04:23:27;9.57;;;8.67;;
17283;SDS011;8760;52.248;20.952;2023-05-16T04:25:53;11.50;;;8.70;;
17283;SDS011;8760;52.248;20.952;2023-05-16T04:28:21;9.60;;;8.70;;
17283;SDS011;8760;52.248;20.952;2023-05-16T04:30:48;10.27;;;8.37;;
17283;SDS011;8760;52.248;20.952;2023-05-16T04:33:17;12.30;;;8.47;;
17283;SDS011;8760;52.248;20.952;2023-05-16T04:35:43;9.33;;;8.07;;
17283;SDS011;8760;52.248;20.952;2023-05-16T04:38:11;9.20;;;8.23;;
17283;SDS011;8760;52.248;20.952;2023-05-16T04:40:37;8.50;;;7.70;;
17283;SDS011;8760;52.248;20.952;2023-05-16T04:43:05;9.47;;;8.40;;
17283;SDS011;8760;52.248;20.952;2023-05-16T04:45:32;8.60;;;7.80;;
17283;SDS011;8760;52.248;20.952;2023-05-16T04:48:00;8.33;;;7.47;;
17283;SDS011;8760;52.248;20.952;2023-05-16T04:50:28;9.30;;;8.13;;
17283;SDS011;8760;52.248;20.952;2023-05-16T04:52:55;8.80;;;7.90;;
17283;SDS011;8760;52.248;20.952;2023-05-16T04:55:22;9.23;;;8.33;;
17283;SDS011;8760;52.248;20.952;2023-05-16T04:57:49;9.93;;;8.00;;
17283;SDS011;8760;52.248;20.952;2023-05-16T05:00:16;12.20;;;7.73;;
17283;SDS011;8760;52.248;20.952;2023-05-16T05:02:43;8.53;;;7.20;;
17283;SDS011;8760;52.248;20.952;2023-05-16T05:05:10;7.90;;;7.10;;
17283;SDS011;8760;52.248;20.952;2023-05-16T05:07:39;7.57;;;6.80;;
17283;SDS011;8760;52.248;20.952;2023-05-16T05:10:07;8.77;;;7.27;;
17283;SDS011;8760;52.248;20.952;2023-05-16T05:12:35;7.80;;;7.00;;
17283;SDS011;8760;52.248;20.952;2023-05-16T05:15:02;8.13;;;7.33;;
17283;SDS011;8760;52.248;20.952;2023-05-16T05:17:29;12.23;;;7.23;;
17283;SDS011;8760;52.248;20.952;2023-05-16T05:19:56;8.03;;;7.00;;
17283;SDS011;8760;52.248;20.952;2023-05-16T05:22:23;7.50;;;6.80;;
17283;SDS011;8760;52.248;20.952;2023-05-16T05:24:51;8.07;;;7.27;;
17283;SDS011;8760;52.248;20.952;2023-05-16T05:27:18;8.30;;;7.50;;
17283;SDS011;8760;52.248;20.952;2023-05-16T05:29:45;8.83;;;7.50;;
17283;SDS011;8760;52.248;20.952;2023-05-16T05:32:11;8.83;;;7.63;;
17283;SDS011;8760;52.248;20.952;2023-05-16T05:34:38;8.73;;;7.83;;
17283;SDS011;8760;52.248;20.952;2023-05-16T05:37:05;8.30;;;7.40;;
17283;SDS011;8760;52.248;20.952;2023-05-16T05:39:32;9.40;;;8.40;;
17283;SDS011;8760;52.248;20.952;2023-05-16T05:42:01;8.63;;;7.73;;
17283;SDS011;8760;52.248;20.952;2023-05-16T05:44:28;9.33;;;8.20;;
17283;SDS011;8760;52.248;20.952;2023-05-16T05:46:55;9.23;;;7.47;;
17283;SDS011;8760;52.248;20.952;2023-05-16T05:49:23;11.40;;;8.00;;
17283;SDS011;8760;52.248;20.952;2023-05-16T05:51:50;12.90;;;8.50;;
17283;SDS011;8760;52.248;20.952;2023-05-16T05:54:17;9.80;;;8.73;;
17283;SDS011;8760;52.248;20.952;2023-05-16T05:56:44;9.20;;;8.30;;
17283;SDS011;8760;52.248;20.952;2023-05-16T05:59:12;9.03;;;7.50;;
17283;SDS011;8760;52.248;20.952;2023-05-16T06:01:39;12.10;;;8.97;;
17283;SDS011;8760;52.248;20.952;2023-05-16T06:04:08;9.30;;;8.33;;
17283;SDS011;8760;52.248;20.952;2023-05-16T06:06:35;9.13;;;8.00;;
17283;SDS011;8760;52.248;20.952;2023-05-16T06:09:04;8.33;;;7.63;;
17283;SDS011;8760;52.248;20.952;2023-05-16T06:11:31;9.27;;;8.37;;
17283;SDS011;8760;52.248;20.952;2023-05-16T06:13:58;8.63;;;7.80;;
17283;SDS011;8760;52.248;20.952;2023-05-16T06:16:26;9.57;;;8.27;;
17283;SDS011;8760;52.248;20.952;2023-05-16T06:18:53;9.27;;;8.10;;
17283;SDS011;8760;52.248;20.952;2023-05-16T06:21:20;10.80;;;8.50;;
17283;SDS011;8760;52.248;20.952;2023-05-16T06:23:47;10.23;;;8.33;;
17283;SDS011;8760;52.248;20.952;2023-05-16T06:26:14;9.23;;;8.43;;
17283;SDS011;8760;52.248;20.952;2023-05-16T06:28:41;10.00;;;9.00;;
17283;SDS011;8760;52.248;20.952;2023-05-16T06:31:08;10.37;;;9.27;;
17283;SDS011;8760;52.248;20.952;2023-05-16T06:33:36;11.20;;;8.93;;
17283;SDS011;8760;52.248;20.952;2023-05-16T06:36:03;10.17;;;9.13;;
17283;SDS011;8760;52.248;20.952;2023-05-16T06:38:30;9.43;;;8.57;;
17283;SDS011;8760;52.248;20.952;2023-05-16T06:40:57;9.60;;;7.93;;
17283;SDS011;8760;52.248;20.952;2023-05-16T06:43:24;9.87;;;8.67;;
17283;SDS011;8760;52.248;20.952;2023-05-16T06:45:51;10.30;;;8.77;;
17283;SDS011;8760;52.248;20.952;2023-05-16T06:48:18;10.10;;;9.10;;
17283;SDS011;8760;52.248;20.952;2023-05-16T06:50:47;9.67;;;8.77;;
17283;SDS011;8760;52.248;20.952;2023-05-16T06:53:15;9.73;;;8.13;;
17283;SDS011;8760;52.248;20.952;2023-05-16T06:55:43;9.67;;;8.30;;
17283;SDS011;8760;52.248;20.952;2023-05-16T06:58:10;9.17;;;8.27;;
17283;SDS011;8760;52.248;20.952;2023-05-16T07:00:37;7.87;;;6.77;;
17283;SDS011;8760;52.248;20.952;2023-05-16T07:03:04;7.80;;;7.10;;
17283;SDS011;8760;52.248;20.952;2023-05-16T07:05:31;8.27;;;7.47;;
17283;SDS011;8760;52.248;20.952;2023-05-16T07:08:00;7.80;;;7.00;;
17283;SDS011;8760;52.248;20.952;2023-05-16T07:10:27;8.23;;;7.40;;
17283;SDS011;8760;52.248;20.952;2023-05-16T07:12:54;10.17;;;7.13;;
17283;SDS011;8760;52.248;20.952;2023-05-16T07:15:22;8.80;;;7.90;;
17283;SDS011;8760;52.248;20.952;2023-05-16T07:17:49;7.90;;;7.20;;
17283;SDS011;8760;52.248;20.952;2023-05-16T07:20:15;9.23;;;6.90;;
17283;SDS011;8760;52.248;20.952;2023-05-16T07:22:42;7.83;;;7.07;;
17283;SDS011;8760;52.248;20.952;2023-05-16T07:25:11;8.80;;;7.63;;
17283;SDS011;8760;52.248;20.952;2023-05-16T07:27:39;7.13;;;6.43;;
17283;SDS011;8760;52.248;20.952;2023-05-16T07:30:09;7.83;;;6.57;;
17283;SDS011;8760;52.248;20.952;2023-05-16T07:32:37;7.57;;;6.87;;
17283;SDS011;8760;52.248;20.952;2023-05-16T07:35:05;6.20;;;5.70;;
17283;SDS011;8760;52.248;20.952;2023-05-16T07:37:32;5.70;;;4.50;;
17283;SDS011;8760;52.248;20.952;2023-05-16T07:40:00;4.77;;;4.37;;
17283;SDS011;8760;52.248;20.952;2023-05-16T07:42:29;5.77;;;4.60;;
17283;SDS011;8760;52.248;20.952;2023-05-16T07:44:56;9.70;;;4.20;;
17283;SDS011;8760;52.248;20.952;2023-05-16T07:47:23;5.85;;;4.38;;
17283;SDS011;8760;52.248;20.952;2023-05-16T07:49:51;8.93;;;4.18;;
17283;SDS011;8760;52.248;20.952;2023-05-16T07:52:18;4.67;;;4.30;;
17283;SDS011;8760;52.248;20.952;2023-05-16T07:54:45;5.00;;;4.60;;
17283;SDS011;8760;52.248;20.952;2023-05-16T07:57:12;4.63;;;4.23;;
17283;SDS011;8760;52.248;20.952;2023-05-16T07:59:41;8.27;;;4.17;;
17283;SDS011;8760;52.248;20.952;2023-05-16T08:02:09;5.00;;;4.30;;
17283;SDS011;8760;52.248;20.952;2023-05-16T08:04:36;4.13;;;3.83;;
17283;SDS011;8760;52.248;20.952;2023-05-16T08:07:03;6.00;;;4.00;;
17283;SDS011;8760;52.248;20.952;2023-05-16T08:09:30;6.93;;;3.90;;
17283;SDS011;8760;52.248;20.952;2023-05-16T08:11:57;4.57;;;3.33;;
17283;SDS011;8760;52.248;20.952;2023-05-16T08:14:27;3.40;;;3.20;;
17283;SDS011;8760;52.248;20.952;2023-05-16T08:16:57;3.83;;;3.50;;
17283;SDS011;8760;52.248;20.952;2023-05-16T08:19:24;4.10;;;3.70;;
17283;SDS011;8760;52.248;20.952;2023-05-16T08:21:51;4.00;;;3.30;;
17283;SDS011;8760;52.248;20.952;2023-05-16T08:24:18;4.43;;;3.70;;
17283;SDS011;8760;52.248;20.952;2023-05-16T08:26:45;5.60;;;3.37;;
17283;SDS011;8760;52.248;20.952;2023-05-16T08:29:12;4.03;;;3.70;;
17283;SDS011;8760;52.248;20.952;2023-05-16T08:31:39;3.57;;;3.33;;
17283;SDS011;8760;52.248;20.952;2023-05-16T08:34:07;4.27;;;3.40;;
17283;SDS011;8760;52.248;20.952;2023-05-16T08:36:34;4.40;;;3.33;;
17283;SDS011;8760;52.248;20.952;2023-05-16T08:39:01;3.93;;;3.60;;
17283;SDS011;8760;52.248;20.952;2023-05-16T08:41:29;3.40;;;3.10;;
17283;SDS011;8760;52.248;20.952;2023-05-16T08:43:56;3.63;;;3.33;;
17283;SDS011;8760;52.248;20.952;2023-05-16T08:46:23;3.60;;;3.30;;
17283;SDS011;8760;52.248;20.952;2023-05-16T08:48:53;5.03;;;3.13;;
17283;SDS011;8760;52.248;20.952;2023-05-16T08:51:26;3.83;;;3.42;;
17283;SDS011;8760;52.248;20.952;2023-05-16T08:53:59;4.32;;;3.22;;
17283;SDS011;8760;52.248;20.952;2023-05-16T08:56:29;3.85;;;2.72;;
17283;SDS011;8760;52.248;20.952;2023-05-16T08:58:59;3.42;;;3.08;;
17283;SDS011;8760;52.248;20.952;2023-05-16T09:01:27;5.45;;;2.83;;
17283;SDS011;8760;52.248;20.952;2023-05-16T09:03:55;3.83;;;3.08;;
17283;SDS011;8760;52.248;20.952;2023-05-16T09:06:22;2.95;;;2.75;;
17283;SDS011;8760;52.248;20.952;2023-05-16T09:08:51;3.40;;;3.10;;
17283;SDS011;8760;52.248;20.952;2023-05-16T09:11:18;4.25;;;2.97;;
17283;SDS011;8760;52.248;20.952;2023-05-16T09:13:45;4.03;;;3.25;;
17283;SDS011;8760;52.248;20.952;2023-05-16T09:16:13;4.35;;;3.30;;
17283;SDS011;8760;52.248;20.952;2023-05-16T09:18:41;3.55;;;2.80;;
17283;SDS011;8760;52.248;20.952;2023-05-16T09:21:10;2.53;;;2.33;;
17283;SDS011;8760;52.248;20.952;2023-05-16T09:23:37;2.83;;;2.35;;
17283;SDS011;8760;52.248;20.952;2023-05-16T09:26:08;5.55;;;2.80;;
17283;SDS011;8760;52.248;20.952;2023-05-16T09:28:36;4.90;;;2.13;;
17283;SDS011;8760;52.248;20.952;2023-05-16T09:31:03;2.67;;;1.98;;
17283;SDS011;8760;52.248;20.952;2023-05-16T09:33:44;2.42;;;2.13;;
17283;SDS011;8760;52.248;20.952;2023-05-16T09:36:11;5.15;;;2.08;;
17283;SDS011;8760;52.248;20.952;2023-05-16T09:38:39;2.20;;;1.95;;
17283;SDS011;8760;52.248;20.952;2023-05-16T09:41:09;3.50;;;2.28;;
17283;SDS011;8760;52.248;20.952;2023-05-16T09:43:36;2.22;;;2.03;;
17283;SDS011;8760;52.248;20.952;2023-05-16T09:46:04;2.58;;;2.38;;
17283;SDS011;8760;52.248;20.952;2023-05-16T09:48:31;5.25;;;3.80;;
17283;SDS011;8760;52.248;20.952;2023-05-16T09:50:58;3.15;;;2.20;;
17283;SDS011;8760;52.248;20.952;2023-05-16T09:53:29;2.40;;;2.20;;
17283;SDS011;8760;52.248;20.952;2023-05-16T09:56:01;2.45;;;2.28;;
17283;SDS011;8760;52.248;20.952;2023-05-16T09:58:30;2.65;;;2.30;;
17283;SDS011;8760;52.248;20.952;2023-05-16T10:00:58;3.05;;;2.25;;
17283;SDS011;8760;52.248;20.952;2023-05-16T10:03:26;2.17;;;1.98;;
17283;SDS011;8760;52.248;20.952;2023-05-16T10:05:54;4.78;;;2.30;;
17283;SDS011;8760;52.248;20.952;2023-05-16T10:08:21;2.47;;;2.10;;
17283;SDS011;8760;52.248;20.952;2023-05-16T10:10:50;2.65;;;2.30;;
17283;SDS011;8760;52.248;20.952;2023-05-16T10:13:18;2.60;;;2.40;;
17283;SDS011;8760;52.248;20.952;2023-05-16T10:15:49;3.95;;;2.60;;
17283;SDS011;8760;52.248;20.952;2023-05-16T10:18:17;2.63;;;2.42;;
17283;SDS011;8760;52.248;20.952;2023-05-16T10:20:47;4.57;;;2.88;;
17283;SDS011;8760;52.248;20.952;2023-05-16T10:23:18;3.35;;;2.38;;
17283;SDS011;8760;52.248;20.952;2023-05-16T10:25:47;7.25;;;2.78;;
17283;SDS011;8760;52.248;20.952;2023-05-16T10:28:14;2.72;;;2.53;;
17283;SDS011;8760;52.248;20.952;2023-05-16T10:30:42;5.25;;;2.60;;
17283;SDS011;8760;52.248;20.952;2023-05-16T10:33:12;4.70;;;2.85;;
17283;SDS011;8760;52.248;20.952;2023-05-16T10:35:41;5.05;;;2.60;;
17283;SDS011;8760;52.248;20.952;2023-05-16T10:38:09;2.78;;;2.45;;
17283;SDS011;8760;52.248;20.952;2023-05-16T10:40:38;7.95;;;2.65;;
17283;SDS011;8760;52.248;20.952;2023-05-16T10:43:06;3.92;;;2.60;;
17283;SDS011;8760;52.248;20.952;2023-05-16T10:45:38;2.40;;;2.20;;
17283;SDS011;8760;52.248;20.952;2023-05-16T10:48:07;4.88;;;2.20;;
17283;SDS011;8760;52.248;20.952;2023-05-16T10:50:39;1.95;;;1.85;;
17283;SDS011;8760;52.248;20.952;2023-05-16T10:53:11;1.90;;;1.80;;
17283;SDS011;8760;52.248;20.952;2023-05-16T10:55:39;2.25;;;2.08;;
17283;SDS011;8760;52.248;20.952;2023-05-16T10:58:09;2.35;;;1.90;;
17283;SDS011;8760;52.248;20.952;2023-05-16T11:00:38;3.13;;;2.38;;
17283;SDS011;8760;52.248;20.952;2023-05-16T11:03:05;1.85;;;1.73;;
17283;SDS011;8760;52.248;20.952;2023-05-16T11:05:50;2.97;;;2.10;;
17283;SDS011;8760;52.248;20.952;2023-05-16T11:08:18;4.00;;;2.15;;
17283;SDS011;8760;52.248;20.952;2023-05-16T11:10:45;2.35;;;2.20;;
17283;SDS011;8760;52.248;20.952;2023-05-16T11:13:12;2.95;;;2.30;;
17283;SDS011;8760;52.248;20.952;2023-05-16T11:15:43;2.90;;;1.98;;
17283;SDS011;8760;52.248;20.952;2023-05-16T11:18:13;2.65;;;2.15;;
17283;SDS011;8760;52.248;20.952;2023-05-16T11:20:41;5.82;;;2.22;;
17283;SDS011;8760;52.248;20.952;2023-05-16T11:23:23;2.42;;;1.98;;
17283;SDS011;8760;52.248;20.952;2023-05-16T11:25:52;3.42;;;2.08;;
17283;SDS011;8760;52.248;20.952;2023-05-16T11:28:20;3.10;;;2.65;;
17283;SDS011;8760;52.248;20.952;2023-05-16T11:30:50;2.45;;;2.10;;
17283;SDS011;8760;52.248;20.952;2023-05-16T11:33:20;2.08;;;1.98;;
17283;SDS011;8760;52.248;20.952;2023-05-16T11:36:04;2.35;;;2.22;;
17283;SDS011;8760;52.248;20.952;2023-05-16T11:38:33;2.42;;;2.20;;
17283;SDS011;8760;52.248;20.952;2023-05-16T11:41:04;2.47;;;1.98;;
17283;SDS011;8760;52.248;20.952;2023-05-16T11:43:39;2.33;;;2.13;;
17283;SDS011;8760;52.248;20.952;2023-05-16T11:46:09;2.78;;;2.25;;
17283;SDS011;8760;52.248;20.952;2023-05-16T11:48:37;3.15;;;2.22;;
17283;SDS011;8760;52.248;20.952;2023-05-16T11:51:04;2.30;;;2.10;;
17283;SDS011;8760;52.248;20.952;2023-05-16T11:53:31;4.10;;;2.42;;
17283;SDS011;8760;52.248;20.952;2023-05-16T11:56:01;3.28;;;2.63;;
17283;SDS011;8760;52.248;20.952;2023-05-16T11:58:28;2.67;;;2.47;;
17283;SDS011;8760;52.248;20.952;2023-05-16T12:00:56;4.00;;;3.28;;
17283;SDS011;8760;52.248;20.952;2023-05-16T12:03:23;3.60;;;2.10;;
17283;SDS011;8760;52.248;20.952;2023-05-16T12:05:50;2.45;;;2.20;;
17283;SDS011;8760;52.248;20.952;2023-05-16T12:08:18;3.15;;;2.38;;
17283;SDS011;8760;52.248;20.952;2023-05-16T12:10:48;3.05;;;2.60;;
17283;SDS011;8760;52.248;20.952;2023-05-16T12:13:17;2.67;;;2.30;;
17283;SDS011;8760;52.248;20.952;2023-05-16T12:15:44;3.05;;;2.20;;
17283;SDS011;8760;52.248;20.952;2023-05-16T12:18:12;6.75;;;2.35;;
17283;SDS011;8760;52.248;20.952;2023-05-16T12:20:39;4.63;;;2.60;;
17283;SDS011;8760;52.248;20.952;2023-05-16T12:23:09;4.25;;;2.55;;
17283;SDS011;8760;52.248;20.952;2023-05-16T12:25:37;3.03;;;2.58;;
17283;SDS011;8760;52.248;20.952;2023-05-16T12:28:12;6.35;;;2.47;;
17283;SDS011;8760;52.248;20.952;2023-05-16T12:30:40;4.85;;;2.55;;
17283;SDS011;8760;52.248;20.952;2023-05-16T12:33:08;3.10;;;2.13;;
17283;SDS011;8760;52.248;20.952;2023-05-16T12:35:37;4.45;;;2.45;;
17283;SDS011;8760;52.248;20.952;2023-05-16T12:38:05;2.50;;;2.30;;
17283;SDS011;8760;52.248;20.952;2023-05-16T12:40:32;2.47;;;1.80;;
17283;SDS011;8760;52.248;20.952;2023-05-16T12:43:01;3.70;;;2.20;;
17283;SDS011;8760;52.248;20.952;2023-05-16T12:45:29;3.13;;;2.13;;
17283;SDS011;8760;52.248;20.952;2023-05-16T12:48:02;4.10;;;2.40;;
17283;SDS011;8760;52.248;20.952;2023-05-16T12:50:30;2.58;;;2.30;;
17283;SDS011;8760;52.248;20.952;2023-05-16T12:52:59;2.55;;;2.35;;
17283;SDS011;8760;52.248;20.952;2023-05-16T12:55:26;5.35;;;2.38;;
17283;SDS011;8760;52.248;20.952;2023-05-16T12:57:54;4.03;;;2.60;;
17283;SDS011;8760;52.248;20.952;2023-05-16T13:00:22;2.88;;;2.40;;
17283;SDS011;8760;52.248;20.952;2023-05-16T13:02:50;3.80;;;2.25;;
17283;SDS011;8760;52.248;20.952;2023-05-16T13:05:18;2.95;;;2.50;;
17283;SDS011;8760;52.248;20.952;2023-05-16T13:07:47;3.92;;;2.55;;
17283;SDS011;8760;52.248;20.952;2023-05-16T13:10:15;2.67;;;2.17;;
17283;SDS011;8760;52.248;20.952;2023-05-16T13:12:43;3.65;;;2.53;;
17283;SDS011;8760;52.248;20.952;2023-05-16T13:15:11;2.58;;;2.38;;
17283;SDS011;8760;52.248;20.952;2023-05-16T13:17:38;2.83;;;2.53;;
17283;SDS011;8760;52.248;20.952;2023-05-16T13:20:09;3.60;;;3.30;;
17283;SDS011;8760;52.248;20.952;2023-05-16T13:22:38;4.65;;;2.60;;
17283;SDS011;8760;52.248;20.952;2023-05-16T13:25:06;3.47;;;2.50;;
17283;SDS011;8760;52.248;20.952;2023-05-16T13:27:34;2.70;;;2.50;;
17283;SDS011;8760;52.248;20.952;2023-05-16T13:30:01;2.70;;;2.50;;
17283;SDS011;8760;52.248;20.952;2023-05-16T13:32:28;2.55;;;2.35;;
17283;SDS011;8760;52.248;20.952;2023-05-16T13:34:55;5.05;;;2.63;;
17283;SDS011;8760;52.248;20.952;2023-05-16T13:37:25;2.40;;;2.20;;
17283;SDS011;8760;52.248;20.952;2023-05-16T13:39:52;3.88;;;2.50;;
17283;SDS011;8760;52.248;20.952;2023-05-16T13:42:20;2.58;;;1.88;;
17283;SDS011;8760;52.248;20.952;2023-05-16T13:44:47;2.22;;;2.10;;
17283;SDS011;8760;52.248;20.952;2023-05-16T13:47:14;2.65;;;2.00;;
17283;SDS011;8760;52.248;20.952;2023-05-16T13:49:41;2.67;;;1.67;;
17283;SDS011;8760;52.248;20.952;2023-05-16T13:52:08;2.22;;;1.98;;
17283;SDS011;8760;52.248;20.952;2023-05-16T13:54:36;1.98;;;1.80;;
17283;SDS011;8760;52.248;20.952;2023-05-16T13:57:04;2.00;;;1.80;;
17283;SDS011;8760;52.248;20.952;2023-05-16T13:59:31;2.10;;;1.90;;
17283;SDS011;8760;52.248;20.952;2023-05-16T14:01:58;1.73;;;1.63;;
17283;SDS011;8760;52.248;20.952;2023-05-16T14:04:25;2.20;;;2.00;;
17283;SDS011;8760;52.248;20.952;2023-05-16T14:06:52;3.85;;;2.10;;
17283;SDS011;8760;52.248;20.952;2023-05-16T14:09:20;2.20;;;2.00;;
17283;SDS011;8760;52.248;20.952;2023-05-16T14:11:48;5.43;;;1.95;;
17283;SDS011;8760;52.248;20.952;2023-05-16T14:14:15;2.10;;;1.98;;
17283;SDS011;8760;52.248;20.952;2023-05-16T14:16:42;1.73;;;1.48;;
17283;SDS011;8760;52.248;20.952;2023-05-16T14:19:10;2.50;;;1.80;;
17283;SDS011;8760;52.248;20.952;2023-05-16T14:21:37;2.85;;;2.40;;
17283;SDS011;8760;52.248;20.952;2023-05-16T14:24:04;3.50;;;1.70;;
17283;SDS011;8760;52.248;20.952;2023-05-16T14:26:32;3.00;;;2.72;;
17283;SDS011;8760;52.248;20.952;2023-05-16T14:29:00;5.45;;;2.40;;
17283;SDS011;8760;52.248;20.952;2023-05-16T14:31:27;2.92;;;2.65;;
17283;SDS011;8760;52.248;20.952;2023-05-16T14:33:54;3.00;;;2.00;;
17283;SDS011;8760;52.248;20.952;2023-05-16T14:36:21;7.00;;;2.40;;
17283;SDS011;8760;52.248;20.952;2023-05-16T14:38:48;2.90;;;2.60;;
17283;SDS011;8760;52.248;20.952;2023-05-16T14:41:15;2.42;;;1.70;;
17283;SDS011;8760;52.248;20.952;2023-05-16T14:43:42;2.83;;;1.95;;
17283;SDS011;8760;52.248;20.952;2023-05-16T14:46:11;1.77;;;1.30;;
17283;SDS011;8760;52.248;20.952;2023-05-16T14:48:38;3.83;;;2.10;;
17283;SDS011;8760;52.248;20.952;2023-05-16T14:51:05;5.75;;;2.42;;
17283;SDS011;8760;52.248;20.952;2023-05-16T14:53:32;3.83;;;3.10;;